sensor_id;sensor_type;location;lat;lon;timestamp;P1;durP1;ratioP1;P2;durP2;ratioP2
42094;SDS011;27753;55.724;37.612;2023-02-01T00:00:16;18.05;;;12.63;;
42094;SDS011;27753;55.724;37.612;2023-02-01T00:02:42;22.33;;;15.05;;
42094;SDS011;27753;55.724;37.612;2023-02-01T00:05:08;25.08;;;12.57;;
42094;SDS011;27753;55.724;37.612;2023-02-01T00:07:35;18.63;;;11.57;;
42094;SDS011;27753;55.724;37.612;2023-02-01T00:10:02;22.45;;;14.15;;
42094;SDS011;27753;55.724;37.612;2023-02-01T00:12:29;24.48;;;13.70;;
42094;SDS011;27753;55.724;37.612;2023-02-01T00:14:55;23.77;;;13.65;;
42094;SDS011;27753;55.724;37.612;2023-02-01T00:17:21;23.55;;;15.00;;
42094;SDS011;27753;55.724;37.612;2023-02-01T00:19:47;22.38;;;13.52;;
42094;SDS011;27753;55.724;37.612;2023-02-01T00:22:13;23.40;;;13.77;;
42094;SDS011;27753;55.724;37.612;2023-02-01T00:24:39;20.48;;;13.98;;
42094;SDS011;27753;55.724;37.612;2023-02-01T00:27:05;21.63;;;13.05;;
42094;SDS011;27753;55.724;37.612;2023-02-01T00:29:31;19.40;;;12.52;;
42094;SDS011;27753;55.724;37.612;2023-02-01T00:31:57;20.70;;;12.30;;
42094;SDS011;27753;55.724;37.612;2023-02-01T00:34:22;30.23;;;15.18;;
42094;SDS011;27753;55.724;37.612;2023-02-01T00:36:48;22.33;;;13.88;;
42094;SDS011;27753;55.724;37.612;2023-02-01T00:39:15;21.58;;;12.70;;
42094;SDS011;27753;55.724;37.612;2023-02-01T00:41:41;24.77;;;11.03;;
42094;SDS011;27753;55.724;37.612;2023-02-01T00:44:07;17.20;;;10.95;;
42094;SDS011;27753;55.724;37.612;2023-02-01T00:46:33;19.17;;;11.90;;
42094;SDS011;27753;55.724;37.612;2023-02-01T00:48:59;18.85;;;10.85;;
42094;SDS011;27753;55.724;37.612;2023-02-01T00:51:26;19.50;;;11.25;;
42094;SDS011;27753;55.724;37.612;2023-02-01T00:53:54;22.27;;;12.90;;
42094;SDS011;27753;55.724;37.612;2023-02-01T00:56:20;19.13;;;10.70;;
42094;SDS011;27753;55.724;37.612;2023-02-01T00:58:46;16.73;;;11.13;;
42094;SDS011;27753;55.724;37.612;2023-02-01T01:01:19;21.58;;;10.25;;
42094;SDS011;27753;55.724;37.612;2023-02-01T01:03:54;23.40;;;10.70;;
42094;SDS011;27753;55.724;37.612;2023-02-01T01:06:25;19.52;;;10.90;;
42094;SDS011;27753;55.724;37.612;2023-02-01T01:08:53;18.02;;;10.57;;
42094;SDS011;27753;55.724;37.612;2023-02-01T01:11:21;22.60;;;11.82;;
42094;SDS011;27753;55.724;37.612;2023-02-01T01:13:49;22.95;;;13.20;;
42094;SDS011;27753;55.724;37.612;2023-02-01T01:16:17;22.15;;;12.15;;
42094;SDS011;27753;55.724;37.612;2023-02-01T01:18:44;18.33;;;10.45;;
42094;SDS011;27753;55.724;37.612;2023-02-01T01:21:11;17.23;;;11.05;;
42094;SDS011;27753;55.724;37.612;2023-02-01T01:26:04;18.90;;;11.45;;
42094;SDS011;27753;55.724;37.612;2023-02-01T01:28:34;19.85;;;11.32;;
42094;SDS011;27753;55.724;37.612;2023-02-01T01:31:00;15.98;;;9.90;;
42094;SDS011;27753;55.724;37.612;2023-02-01T01:33:26;14.30;;;9.27;;
42094;SDS011;27753;55.724;37.612;2023-02-01T01:35:52;20.00;;;11.93;;
42094;SDS011;27753;55.724;37.612;2023-02-01T01:38:18;22.83;;;11.98;;
42094;SDS011;27753;55.724;37.612;2023-02-01T01:40:44;16.35;;;12.10;;
42094;SDS011;27753;55.724;37.612;2023-02-01T01:43:15;18.30;;;11.80;;
42094;SDS011;27753;55.724;37.612;2023-02-01T01:45:42;20.75;;;11.90;;
42094;SDS011;27753;55.724;37.612;2023-02-01T01:50:40;20.75;;;11.60;;
42094;SDS011;27753;55.724;37.612;2023-02-01T01:53:10;18.92;;;11.88;;
42094;SDS011;27753;55.724;37.612;2023-02-01T01:55:42;16.85;;;9.95;;
42094;SDS011;27753;55.724;37.612;2023-02-01T01:58:13;18.40;;;12.73;;
42094;SDS011;27753;55.724;37.612;2023-02-01T02:00:42;22.80;;;12.13;;
42094;SDS011;27753;55.724;37.612;2023-02-01T02:03:20;16.15;;;10.02;;
42094;SDS011;27753;55.724;37.612;2023-02-01T02:05:49;16.95;;;10.82;;
42094;SDS011;27753;55.724;37.612;2023-02-01T02:10:45;15.90;;;9.70;;
42094;SDS011;27753;55.724;37.612;2023-02-01T02:13:25;21.35;;;10.45;;
42094;SDS011;27753;55.724;37.612;2023-02-01T02:21:40;17.95;;;11.50;;
42094;SDS011;27753;55.724;37.612;2023-02-01T02:36:07;19.65;;;12.27;;
42094;SDS011;27753;55.724;37.612;2023-02-01T02:47:33;20.20;;;10.75;;
42094;SDS011;27753;55.724;37.612;2023-02-01T02:50:05;20.92;;;12.65;;
42094;SDS011;27753;55.724;37.612;2023-02-01T02:53:12;17.88;;;11.43;;
42094;SDS011;27753;55.724;37.612;2023-02-01T02:56:00;16.45;;;9.88;;
42094;SDS011;27753;55.724;37.612;2023-02-01T02:58:47;22.35;;;12.35;;
42094;SDS011;27753;55.724;37.612;2023-02-01T03:01:32;19.75;;;13.45;;
42094;SDS011;27753;55.724;37.612;2023-02-01T03:04:17;18.60;;;12.88;;
42094;SDS011;27753;55.724;37.612;2023-02-01T03:06:46;23.45;;;12.77;;
42094;SDS011;27753;55.724;37.612;2023-02-01T03:11:59;20.42;;;12.05;;
42094;SDS011;27753;55.724;37.612;2023-02-01T03:14:57;21.27;;;11.07;;
42094;SDS011;27753;55.724;37.612;2023-02-01T03:17:32;21.80;;;11.57;;
42094;SDS011;27753;55.724;37.612;2023-02-01T03:20:02;21.52;;;12.18;;
42094;SDS011;27753;55.724;37.612;2023-02-01T03:22:30;22.42;;;13.50;;
42094;SDS011;27753;55.724;37.612;2023-02-01T03:25:10;19.83;;;12.73;;
42094;SDS011;27753;55.724;37.612;2023-02-01T03:27:41;18.30;;;11.23;;
42094;SDS011;27753;55.724;37.612;2023-02-01T03:30:20;23.45;;;12.57;;
42094;SDS011;27753;55.724;37.612;2023-02-01T03:32:51;18.17;;;11.27;;
42094;SDS011;27753;55.724;37.612;2023-02-01T03:43:43;19.10;;;11.88;;
42094;SDS011;27753;55.724;37.612;2023-02-01T03:46:22;21.98;;;13.00;;
42094;SDS011;27753;55.724;37.612;2023-02-01T03:49:05;20.48;;;13.52;;
42094;SDS011;27753;55.724;37.612;2023-02-01T03:51:33;21.50;;;13.23;;
42094;SDS011;27753;55.724;37.612;2023-02-01T03:54:03;19.70;;;11.80;;
42094;SDS011;27753;55.724;37.612;2023-02-01T03:56:32;20.73;;;12.07;;
42094;SDS011;27753;55.724;37.612;2023-02-01T03:59:02;23.77;;;14.57;;
42094;SDS011;27753;55.724;37.612;2023-02-01T04:01:28;22.33;;;13.05;;
42094;SDS011;27753;55.724;37.612;2023-02-01T04:06:21;25.33;;;13.98;;
42094;SDS011;27753;55.724;37.612;2023-02-01T04:08:47;20.60;;;12.63;;
42094;SDS011;27753;55.724;37.612;2023-02-01T04:11:13;22.92;;;15.10;;
42094;SDS011;27753;55.724;37.612;2023-02-01T04:13:39;25.95;;;13.43;;
42094;SDS011;27753;55.724;37.612;2023-02-01T04:16:05;27.17;;;16.13;;
42094;SDS011;27753;55.724;37.612;2023-02-01T04:18:31;22.50;;;13.38;;
42094;SDS011;27753;55.724;37.612;2023-02-01T04:20:56;24.23;;;14.57;;
42094;SDS011;27753;55.724;37.612;2023-02-01T04:23:22;28.23;;;15.70;;
42094;SDS011;27753;55.724;37.612;2023-02-01T04:25:48;27.00;;;16.70;;
42094;SDS011;27753;55.724;37.612;2023-02-01T04:28:14;28.35;;;13.73;;
42094;SDS011;27753;55.724;37.612;2023-02-01T04:30:39;25.02;;;15.55;;
42094;SDS011;27753;55.724;37.612;2023-02-01T04:33:05;22.67;;;13.50;;
42094;SDS011;27753;55.724;37.612;2023-02-01T04:35:31;29.27;;;17.55;;
42094;SDS011;27753;55.724;37.612;2023-02-01T04:37:57;25.40;;;14.07;;
42094;SDS011;27753;55.724;37.612;2023-02-01T04:40:23;25.00;;;13.30;;
42094;SDS011;27753;55.724;37.612;2023-02-01T04:42:50;24.17;;;15.57;;
42094;SDS011;27753;55.724;37.612;2023-02-01T04:45:16;21.92;;;13.25;;
42094;SDS011;27753;55.724;37.612;2023-02-01T04:47:42;25.73;;;14.95;;
42094;SDS011;27753;55.724;37.612;2023-02-01T04:50:07;22.80;;;13.70;;
42094;SDS011;27753;55.724;37.612;2023-02-01T04:55:01;25.95;;;14.93;;
42094;SDS011;27753;55.724;37.612;2023-02-01T04:57:28;27.83;;;15.85;;
42094;SDS011;27753;55.724;37.612;2023-02-01T04:59:54;29.67;;;15.77;;
42094;SDS011;27753;55.724;37.612;2023-02-01T05:02:19;31.00;;;16.13;;
42094;SDS011;27753;55.724;37.612;2023-02-01T05:04:45;24.70;;;14.35;;
42094;SDS011;27753;55.724;37.612;2023-02-01T05:07:11;27.58;;;14.20;;
42094;SDS011;27753;55.724;37.612;2023-02-01T05:09:37;26.23;;;15.90;;
42094;SDS011;27753;55.724;37.612;2023-02-01T05:12:03;26.95;;;15.23;;
42094;SDS011;27753;55.724;37.612;2023-02-01T05:14:48;34.03;;;14.50;;
42094;SDS011;27753;55.724;37.612;2023-02-01T05:17:14;22.65;;;14.13;;
42094;SDS011;27753;55.724;37.612;2023-02-01T05:19:39;24.25;;;12.43;;
42094;SDS011;27753;55.724;37.612;2023-02-01T05:22:05;23.70;;;13.85;;
42094;SDS011;27753;55.724;37.612;2023-02-01T05:24:31;27.45;;;15.40;;
42094;SDS011;27753;55.724;37.612;2023-02-01T05:26:57;25.50;;;13.57;;
42094;SDS011;27753;55.724;37.612;2023-02-01T05:29:23;23.63;;;15.40;;
42094;SDS011;27753;55.724;37.612;2023-02-01T05:31:48;31.38;;;15.90;;
42094;SDS011;27753;55.724;37.612;2023-02-01T05:34:15;30.67;;;14.50;;
42094;SDS011;27753;55.724;37.612;2023-02-01T05:36:41;27.85;;;15.68;;
42094;SDS011;27753;55.724;37.612;2023-02-01T05:39:07;28.52;;;13.40;;
42094;SDS011;27753;55.724;37.612;2023-02-01T05:41:32;25.23;;;14.50;;
42094;SDS011;27753;55.724;37.612;2023-02-01T05:43:58;29.98;;;16.33;;
42094;SDS011;27753;55.724;37.612;2023-02-01T05:46:24;29.70;;;15.90;;
42094;SDS011;27753;55.724;37.612;2023-02-01T05:48:50;32.42;;;17.15;;
42094;SDS011;27753;55.724;37.612;2023-02-01T05:51:16;27.73;;;14.07;;
42094;SDS011;27753;55.724;37.612;2023-02-01T05:53:41;25.52;;;13.10;;
42094;SDS011;27753;55.724;37.612;2023-02-01T05:56:07;27.48;;;13.60;;
42094;SDS011;27753;55.724;37.612;2023-02-01T05:58:33;22.45;;;12.10;;
42094;SDS011;27753;55.724;37.612;2023-02-01T06:00:59;29.92;;;14.90;;
42094;SDS011;27753;55.724;37.612;2023-02-01T06:03:25;33.03;;;17.83;;
42094;SDS011;27753;55.724;37.612;2023-02-01T06:05:52;30.67;;;16.05;;
42094;SDS011;27753;55.724;37.612;2023-02-01T06:08:18;25.77;;;13.35;;
42094;SDS011;27753;55.724;37.612;2023-02-01T06:10:44;30.42;;;15.05;;
42094;SDS011;27753;55.724;37.612;2023-02-01T06:13:10;34.80;;;16.60;;
42094;SDS011;27753;55.724;37.612;2023-02-01T06:15:36;29.80;;;17.75;;
42094;SDS011;27753;55.724;37.612;2023-02-01T06:18:02;36.42;;;19.50;;
42094;SDS011;27753;55.724;37.612;2023-02-01T06:20:28;36.03;;;15.45;;
42094;SDS011;27753;55.724;37.612;2023-02-01T06:22:54;20.75;;;11.63;;
42094;SDS011;27753;55.724;37.612;2023-02-01T06:25:20;32.90;;;15.13;;
42094;SDS011;27753;55.724;37.612;2023-02-01T06:27:46;37.13;;;17.15;;
42094;SDS011;27753;55.724;37.612;2023-02-01T06:30:13;33.10;;;16.67;;
42094;SDS011;27753;55.724;37.612;2023-02-01T06:32:40;35.67;;;17.83;;
42094;SDS011;27753;55.724;37.612;2023-02-01T06:35:09;26.20;;;12.48;;
42094;SDS011;27753;55.724;37.612;2023-02-01T06:37:40;30.67;;;13.25;;
42094;SDS011;27753;55.724;37.612;2023-02-01T06:40:06;30.83;;;14.63;;
42094;SDS011;27753;55.724;37.612;2023-02-01T06:42:33;31.23;;;16.15;;
42094;SDS011;27753;55.724;37.612;2023-02-01T06:44:59;28.48;;;16.73;;
42094;SDS011;27753;55.724;37.612;2023-02-01T06:47:25;40.10;;;16.33;;
42094;SDS011;27753;55.724;37.612;2023-02-01T06:49:51;37.15;;;16.38;;
42094;SDS011;27753;55.724;37.612;2023-02-01T06:52:16;32.75;;;15.98;;
42094;SDS011;27753;55.724;37.612;2023-02-01T06:54:42;34.65;;;17.63;;
42094;SDS011;27753;55.724;37.612;2023-02-01T06:57:08;29.88;;;15.98;;
42094;SDS011;27753;55.724;37.612;2023-02-01T06:59:34;20.08;;;10.40;;
42094;SDS011;27753;55.724;37.612;2023-02-01T07:02:00;27.92;;;15.73;;
42094;SDS011;27753;55.724;37.612;2023-02-01T07:04:25;32.17;;;15.80;;
42094;SDS011;27753;55.724;37.612;2023-02-01T07:06:51;27.83;;;14.10;;
42094;SDS011;27753;55.724;37.612;2023-02-01T07:09:17;29.67;;;14.75;;
42094;SDS011;27753;55.724;37.612;2023-02-01T07:11:43;32.30;;;15.40;;
42094;SDS011;27753;55.724;37.612;2023-02-01T07:14:09;25.58;;;14.60;;
42094;SDS011;27753;55.724;37.612;2023-02-01T07:16:36;32.67;;;15.48;;
42094;SDS011;27753;55.724;37.612;2023-02-01T07:19:01;24.10;;;13.38;;
42094;SDS011;27753;55.724;37.612;2023-02-01T07:21:29;26.17;;;15.73;;
42094;SDS011;27753;55.724;37.612;2023-02-01T07:23:55;32.53;;;14.82;;
42094;SDS011;27753;55.724;37.612;2023-02-01T07:26:21;33.97;;;17.35;;
42094;SDS011;27753;55.724;37.612;2023-02-01T07:28:47;24.65;;;14.88;;
42094;SDS011;27753;55.724;37.612;2023-02-01T07:31:14;30.23;;;14.82;;
42094;SDS011;27753;55.724;37.612;2023-02-01T07:33:43;32.67;;;16.48;;
42094;SDS011;27753;55.724;37.612;2023-02-01T07:36:13;26.52;;;15.00;;
42094;SDS011;27753;55.724;37.612;2023-02-01T07:38:40;31.60;;;17.58;;
42094;SDS011;27753;55.724;37.612;2023-02-01T07:41:07;29.00;;;16.98;;
42094;SDS011;27753;55.724;37.612;2023-02-01T07:43:33;30.63;;;15.15;;
42094;SDS011;27753;55.724;37.612;2023-02-01T07:46:00;28.33;;;15.07;;
42094;SDS011;27753;55.724;37.612;2023-02-01T07:48:27;31.85;;;15.15;;
42094;SDS011;27753;55.724;37.612;2023-02-01T07:50:56;23.13;;;12.18;;
42094;SDS011;27753;55.724;37.612;2023-02-01T07:53:23;34.22;;;15.50;;
42094;SDS011;27753;55.724;37.612;2023-02-01T07:55:49;26.58;;;13.13;;
42094;SDS011;27753;55.724;37.612;2023-02-01T07:58:15;26.10;;;14.18;;
42094;SDS011;27753;55.724;37.612;2023-02-01T08:00:42;27.77;;;14.80;;
42094;SDS011;27753;55.724;37.612;2023-02-01T08:03:27;25.17;;;12.43;;
42094;SDS011;27753;55.724;37.612;2023-02-01T08:05:55;23.73;;;13.43;;
42094;SDS011;27753;55.724;37.612;2023-02-01T08:08:22;27.08;;;14.38;;
42094;SDS011;27753;55.724;37.612;2023-02-01T08:10:48;29.08;;;18.80;;
42094;SDS011;27753;55.724;37.612;2023-02-01T08:13:14;31.13;;;15.10;;
42094;SDS011;27753;55.724;37.612;2023-02-01T08:15:40;31.77;;;19.10;;
42094;SDS011;27753;55.724;37.612;2023-02-01T08:18:05;34.03;;;17.73;;
42094;SDS011;27753;55.724;37.612;2023-02-01T08:20:31;33.10;;;18.00;;
42094;SDS011;27753;55.724;37.612;2023-02-01T08:23:00;27.95;;;16.40;;
42094;SDS011;27753;55.724;37.612;2023-02-01T08:25:26;33.13;;;17.95;;
42094;SDS011;27753;55.724;37.612;2023-02-01T08:27:52;38.15;;;19.88;;
42094;SDS011;27753;55.724;37.612;2023-02-01T08:30:19;38.90;;;16.90;;
42094;SDS011;27753;55.724;37.612;2023-02-01T08:32:45;33.65;;;16.48;;
42094;SDS011;27753;55.724;37.612;2023-02-01T08:35:11;33.47;;;17.35;;
42094;SDS011;27753;55.724;37.612;2023-02-01T08:37:37;33.17;;;19.23;;
42094;SDS011;27753;55.724;37.612;2023-02-01T08:40:03;27.50;;;16.63;;
42094;SDS011;27753;55.724;37.612;2023-02-01T08:42:30;31.23;;;19.27;;
42094;SDS011;27753;55.724;37.612;2023-02-01T08:45:15;28.23;;;15.93;;
42094;SDS011;27753;55.724;37.612;2023-02-01T08:47:40;27.63;;;15.95;;
42094;SDS011;27753;55.724;37.612;2023-02-01T08:50:09;33.00;;;16.95;;
42094;SDS011;27753;55.724;37.612;2023-02-01T08:52:35;29.60;;;16.58;;
42094;SDS011;27753;55.724;37.612;2023-02-01T08:55:05;24.63;;;14.23;;
42094;SDS011;27753;55.724;37.612;2023-02-01T08:57:32;26.70;;;15.45;;
42094;SDS011;27753;55.724;37.612;2023-02-01T08:59:58;27.80;;;16.60;;
42094;SDS011;27753;55.724;37.612;2023-02-01T09:02:25;24.93;;;13.67;;
42094;SDS011;27753;55.724;37.612;2023-02-01T09:04:51;24.70;;;12.20;;
42094;SDS011;27753;55.724;37.612;2023-02-01T09:07:17;26.50;;;12.50;;
42094;SDS011;27753;55.724;37.612;2023-02-01T09:09:43;25.80;;;13.38;;
42094;SDS011;27753;55.724;37.612;2023-02-01T09:12:10;24.73;;;14.97;;
42094;SDS011;27753;55.724;37.612;2023-02-01T09:14:36;22.75;;;12.50;;
42094;SDS011;27753;55.724;37.612;2023-02-01T09:17:02;27.88;;;14.48;;
42094;SDS011;27753;55.724;37.612;2023-02-01T09:19:30;30.00;;;14.55;;
42094;SDS011;27753;55.724;37.612;2023-02-01T09:21:56;31.88;;;15.45;;
42094;SDS011;27753;55.724;37.612;2023-02-01T09:24:22;37.80;;;18.17;;
42094;SDS011;27753;55.724;37.612;2023-02-01T09:26:53;33.17;;;19.05;;
42094;SDS011;27753;55.724;37.612;2023-02-01T09:29:18;33.78;;;20.02;;
42094;SDS011;27753;55.724;37.612;2023-02-01T09:31:44;36.25;;;17.85;;
42094;SDS011;27753;55.724;37.612;2023-02-01T09:34:10;30.92;;;16.73;;
42094;SDS011;27753;55.724;37.612;2023-02-01T09:36:36;34.88;;;18.00;;
42094;SDS011;27753;55.724;37.612;2023-02-01T09:39:02;30.95;;;17.77;;
42094;SDS011;27753;55.724;37.612;2023-02-01T09:47:31;32.20;;;18.80;;
42094;SDS011;27753;55.724;37.612;2023-02-01T09:50:11;38.38;;;20.52;;
42094;SDS011;27753;55.724;37.612;2023-02-01T09:55:16;33.08;;;18.40;;
42094;SDS011;27753;55.724;37.612;2023-02-01T09:57:56;33.38;;;19.17;;
42094;SDS011;27753;55.724;37.612;2023-02-01T10:00:27;27.80;;;18.00;;
42094;SDS011;27753;55.724;37.612;2023-02-01T10:02:58;33.65;;;17.42;;
42094;SDS011;27753;55.724;37.612;2023-02-01T10:14:09;27.38;;;17.00;;
42094;SDS011;27753;55.724;37.612;2023-02-01T10:16:57;31.70;;;18.63;;
42094;SDS011;27753;55.724;37.612;2023-02-01T10:21:58;33.63;;;17.83;;
42094;SDS011;27753;55.724;37.612;2023-02-01T10:24:30;24.63;;;13.40;;
42094;SDS011;27753;55.724;37.612;2023-02-01T10:29:43;36.90;;;20.33;;
42094;SDS011;27753;55.724;37.612;2023-02-01T10:32:16;33.00;;;20.60;;
42094;SDS011;27753;55.724;37.612;2023-02-01T10:35:31;35.78;;;20.35;;
42094;SDS011;27753;55.724;37.612;2023-02-01T10:37:37;35.67;;;21.13;;
42094;SDS011;27753;55.724;37.612;2023-02-01T10:40:12;30.23;;;17.98;;
42094;SDS011;27753;55.724;37.612;2023-02-01T10:42:43;39.15;;;22.17;;
42094;SDS011;27753;55.724;37.612;2023-02-01T10:45:12;39.75;;;21.60;;
42094;SDS011;27753;55.724;37.612;2023-02-01T10:47:41;36.22;;;21.73;;
42094;SDS011;27753;55.724;37.612;2023-02-01T10:53:31;36.80;;;19.88;;
42094;SDS011;27753;55.724;37.612;2023-02-01T10:55:54;34.75;;;20.55;;
42094;SDS011;27753;55.724;37.612;2023-02-01T10:58:26;33.97;;;19.85;;
42094;SDS011;27753;55.724;37.612;2023-02-01T11:03:32;40.63;;;19.15;;
42094;SDS011;27753;55.724;37.612;2023-02-01T11:06:48;33.20;;;18.80;;
42094;SDS011;27753;55.724;37.612;2023-02-01T11:09:16;32.40;;;19.02;;
42094;SDS011;27753;55.724;37.612;2023-02-01T11:14:22;39.10;;;24.98;;
42094;SDS011;27753;55.724;37.612;2023-02-01T11:16:59;34.70;;;17.77;;
42094;SDS011;27753;55.724;37.612;2023-02-01T11:19:25;40.38;;;18.75;;
42094;SDS011;27753;55.724;37.612;2023-02-01T11:21:55;33.80;;;18.47;;
42094;SDS011;27753;55.724;37.612;2023-02-01T11:26:55;35.53;;;19.02;;
42094;SDS011;27753;55.724;37.612;2023-02-01T11:29:22;35.30;;;22.25;;
42094;SDS011;27753;55.724;37.612;2023-02-01T11:31:55;35.92;;;16.90;;
42094;SDS011;27753;55.724;37.612;2023-02-01T11:34:24;38.63;;;19.13;;
42094;SDS011;27753;55.724;37.612;2023-02-01T11:36:58;31.85;;;19.17;;
42094;SDS011;27753;55.724;37.612;2023-02-01T11:39:28;36.67;;;20.80;;
42094;SDS011;27753;55.724;37.612;2023-02-01T11:42:05;40.13;;;21.08;;
42094;SDS011;27753;55.724;37.612;2023-02-01T11:44:32;32.22;;;19.08;;
42094;SDS011;27753;55.724;37.612;2023-02-01T11:49:46;31.98;;;16.10;;
42094;SDS011;27753;55.724;37.612;2023-02-01T12:08:38;34.80;;;18.83;;
42094;SDS011;27753;55.724;37.612;2023-02-01T12:14:39;30.35;;;17.02;;
42094;SDS011;27753;55.724;37.612;2023-02-01T12:26:08;25.38;;;15.63;;
42094;SDS011;27753;55.724;37.612;2023-02-01T12:39:57;27.00;;;14.40;;
42094;SDS011;27753;55.724;37.612;2023-02-01T12:42:36;27.27;;;16.25;;
42094;SDS011;27753;55.724;37.612;2023-02-01T12:52:54;20.60;;;12.25;;
42094;SDS011;27753;55.724;37.612;2023-02-01T12:55:35;27.25;;;14.63;;
42094;SDS011;27753;55.724;37.612;2023-02-01T13:00:46;25.92;;;14.15;;
42094;SDS011;27753;55.724;37.612;2023-02-01T13:03:36;22.77;;;12.88;;
42094;SDS011;27753;55.724;37.612;2023-02-01T13:09:03;25.07;;;13.97;;
42094;SDS011;27753;55.724;37.612;2023-02-01T13:11:46;23.98;;;14.18;;
42094;SDS011;27753;55.724;37.612;2023-02-01T13:14:49;30.85;;;14.77;;
42094;SDS011;27753;55.724;37.612;2023-02-01T13:17:23;26.13;;;14.50;;
42094;SDS011;27753;55.724;37.612;2023-02-01T13:22:36;25.98;;;14.98;;
42094;SDS011;27753;55.724;37.612;2023-02-01T13:25:13;24.80;;;14.05;;
42094;SDS011;27753;55.724;37.612;2023-02-01T13:27:49;30.88;;;15.13;;
42094;SDS011;27753;55.724;37.612;2023-02-01T13:41:20;21.50;;;11.18;;
42094;SDS011;27753;55.724;37.612;2023-02-01T13:44:08;13.35;;;8.20;;
42094;SDS011;27753;55.724;37.612;2023-02-01T13:46:41;19.77;;;9.40;;
42094;SDS011;27753;55.724;37.612;2023-02-01T13:49:20;19.02;;;11.18;;
42094;SDS011;27753;55.724;37.612;2023-02-01T13:51:56;20.77;;;9.48;;
42094;SDS011;27753;55.724;37.612;2023-02-01T13:56:58;16.45;;;9.82;;
42094;SDS011;27753;55.724;37.612;2023-02-01T14:05:08;18.63;;;10.25;;
42094;SDS011;27753;55.724;37.612;2023-02-01T14:13:13;15.75;;;10.30;;
42094;SDS011;27753;55.724;37.612;2023-02-01T14:26:26;21.33;;;12.30;;
42094;SDS011;27753;55.724;37.612;2023-02-01T14:29:21;20.85;;;12.52;;
42094;SDS011;27753;55.724;37.612;2023-02-01T14:35:00;23.17;;;15.15;;
42094;SDS011;27753;55.724;37.612;2023-02-01T14:37:32;22.70;;;13.68;;
42094;SDS011;27753;55.724;37.612;2023-02-01T14:40:04;25.70;;;14.70;;
42094;SDS011;27753;55.724;37.612;2023-02-01T14:58:52;21.67;;;12.73;;
42094;SDS011;27753;55.724;37.612;2023-02-01T15:03:56;29.08;;;13.63;;
42094;SDS011;27753;55.724;37.612;2023-02-01T15:06:24;21.27;;;12.02;;
42094;SDS011;27753;55.724;37.612;2023-02-01T15:09:18;22.35;;;12.70;;
42094;SDS011;27753;55.724;37.612;2023-02-01T15:14:37;22.35;;;11.95;;
42094;SDS011;27753;55.724;37.612;2023-02-01T15:17:20;19.90;;;12.52;;
42094;SDS011;27753;55.724;37.612;2023-02-01T15:22:28;19.60;;;10.07;;
42094;SDS011;27753;55.724;37.612;2023-02-01T15:24:56;21.30;;;12.68;;
42094;SDS011;27753;55.724;37.612;2023-02-01T15:29:49;21.15;;;11.95;;
42094;SDS011;27753;55.724;37.612;2023-02-01T15:32:28;21.45;;;12.70;;
42094;SDS011;27753;55.724;37.612;2023-02-01T15:34:58;24.63;;;12.75;;
42094;SDS011;27753;55.724;37.612;2023-02-01T15:37:27;22.60;;;14.40;;
42094;SDS011;27753;55.724;37.612;2023-02-01T15:40:18;27.02;;;13.73;;
42094;SDS011;27753;55.724;37.612;2023-02-01T15:42:53;24.88;;;13.95;;
42094;SDS011;27753;55.724;37.612;2023-02-01T15:45:25;29.15;;;15.35;;
42094;SDS011;27753;55.724;37.612;2023-02-01T15:47:54;33.00;;;18.27;;
42094;SDS011;27753;55.724;37.612;2023-02-01T15:50:21;36.75;;;15.73;;
42094;SDS011;27753;55.724;37.612;2023-02-01T15:52:49;25.77;;;14.88;;
42094;SDS011;27753;55.724;37.612;2023-02-01T15:58:20;28.90;;;15.85;;
42094;SDS011;27753;55.724;37.612;2023-02-01T16:05:55;21.20;;;12.32;;
42094;SDS011;27753;55.724;37.612;2023-02-01T16:08:24;21.73;;;12.25;;
42094;SDS011;27753;55.724;37.612;2023-02-01T16:10:52;26.17;;;11.38;;
42094;SDS011;27753;55.724;37.612;2023-02-01T16:13:24;24.60;;;15.45;;
42094;SDS011;27753;55.724;37.612;2023-02-01T16:15:50;26.90;;;14.60;;
42094;SDS011;27753;55.724;37.612;2023-02-01T16:18:16;25.55;;;13.23;;
42094;SDS011;27753;55.724;37.612;2023-02-01T16:20:42;21.75;;;9.52;;
42094;SDS011;27753;55.724;37.612;2023-02-01T16:23:09;25.75;;;13.52;;
42094;SDS011;27753;55.724;37.612;2023-02-01T16:25:36;18.80;;;9.63;;
42094;SDS011;27753;55.724;37.612;2023-02-01T16:28:02;23.90;;;12.40;;
42094;SDS011;27753;55.724;37.612;2023-02-01T16:30:30;24.40;;;14.43;;
42094;SDS011;27753;55.724;37.612;2023-02-01T16:32:57;25.83;;;14.75;;
42094;SDS011;27753;55.724;37.612;2023-02-01T16:37:51;30.10;;;14.30;;
42094;SDS011;27753;55.724;37.612;2023-02-01T16:40:18;18.48;;;11.45;;
42094;SDS011;27753;55.724;37.612;2023-02-01T16:42:47;24.73;;;13.65;;
42094;SDS011;27753;55.724;37.612;2023-02-01T16:45:16;22.70;;;12.43;;
42094;SDS011;27753;55.724;37.612;2023-02-01T16:47:47;25.63;;;15.30;;
42094;SDS011;27753;55.724;37.612;2023-02-01T16:50:25;26.20;;;13.10;;
42094;SDS011;27753;55.724;37.612;2023-02-01T16:52:56;27.88;;;13.95;;
42094;SDS011;27753;55.724;37.612;2023-02-01T16:55:22;22.73;;;14.70;;
42094;SDS011;27753;55.724;37.612;2023-02-01T16:57:48;19.58;;;10.10;;
42094;SDS011;27753;55.724;37.612;2023-02-01T17:00:17;22.00;;;13.57;;
42094;SDS011;27753;55.724;37.612;2023-02-01T17:02:45;21.38;;;12.68;;
42094;SDS011;27753;55.724;37.612;2023-02-01T17:05:11;22.13;;;13.00;;
42094;SDS011;27753;55.724;37.612;2023-02-01T17:07:37;24.92;;;14.25;;
42094;SDS011;27753;55.724;37.612;2023-02-01T17:10:05;27.80;;;14.85;;
42094;SDS011;27753;55.724;37.612;2023-02-01T17:12:43;20.83;;;13.25;;
42094;SDS011;27753;55.724;37.612;2023-02-01T17:15:11;21.15;;;13.63;;
42094;SDS011;27753;55.724;37.612;2023-02-01T17:17:40;24.95;;;13.73;;
42094;SDS011;27753;55.724;37.612;2023-02-01T17:20:10;22.45;;;14.68;;
42094;SDS011;27753;55.724;37.612;2023-02-01T17:22:46;26.50;;;14.15;;
42094;SDS011;27753;55.724;37.612;2023-02-01T17:25:18;26.30;;;16.30;;
42094;SDS011;27753;55.724;37.612;2023-02-01T17:27:46;25.45;;;14.88;;
42094;SDS011;27753;55.724;37.612;2023-02-01T17:30:12;25.37;;;16.07;;
42094;SDS011;27753;55.724;37.612;2023-02-01T17:32:40;24.55;;;14.13;;
42094;SDS011;27753;55.724;37.612;2023-02-01T17:35:12;26.77;;;15.15;;
42094;SDS011;27753;55.724;37.612;2023-02-01T17:37:46;26.77;;;13.75;;
42094;SDS011;27753;55.724;37.612;2023-02-01T17:40:12;23.55;;;14.57;;
42094;SDS011;27753;55.724;37.612;2023-02-01T17:42:38;29.00;;;16.70;;
42094;SDS011;27753;55.724;37.612;2023-02-01T17:47:51;31.35;;;15.30;;
42094;SDS011;27753;55.724;37.612;2023-02-01T17:50:16;26.65;;;14.82;;
42094;SDS011;27753;55.724;37.612;2023-02-01T17:52:42;21.15;;;13.02;;
42094;SDS011;27753;55.724;37.612;2023-02-01T17:55:18;21.48;;;13.60;;
42094;SDS011;27753;55.724;37.612;2023-02-01T17:57:47;16.73;;;11.07;;
42094;SDS011;27753;55.724;37.612;2023-02-01T18:00:14;20.33;;;12.67;;
42094;SDS011;27753;55.724;37.612;2023-02-01T18:05:18;20.08;;;11.63;;